createdAt,value
2022-12-25T12:02:05.297Z,23.03
2022-12-25T12:04:43.108Z,22.80
2022-12-25T12:07:19.102Z,22.83
2022-12-25T12:09:56.392Z,22.82
2022-12-25T12:13:23.659Z,22.85
2022-12-25T12:15:58.710Z,22.63
2022-12-25T12:18:28.170Z,22.46
2022-12-25T12:21:04.770Z,22.32
2022-12-25T12:24:16.338Z,22.23
2022-12-25T12:26:46.512Z,22.16
2022-12-25T12:29:29.657Z,22.11
2022-12-25T12:32:03.540Z,22.09
2022-12-25T12:34:40.826Z,21.99
2022-12-25T12:38:03.594Z,21.77
2022-12-25T12:41:03.382Z,21.43
2022-12-25T12:43:37.477Z,20.95
2022-12-25T12:46:32.277Z,20.67
2022-12-25T12:49:35.036Z,20.17
2022-12-25T12:52:25.226Z,19.83
2022-12-25T12:55:14.997Z,19.51
2022-12-25T12:58:02.806Z,19.18
2022-12-25T13:00:55.841Z,18.81
2022-12-25T13:03:56.214Z,18.59
2022-12-25T13:06:42.321Z,18.42
2022-12-25T13:09:30.280Z,18.19
2022-12-25T13:11:58.799Z,17.91
2022-12-25T13:14:40.102Z,17.62
2022-12-25T13:17:10.385Z,17.32
2022-12-25T13:19:44.873Z,17.11
2022-12-25T13:22:32.087Z,16.98
2022-12-25T13:25:19.410Z,16.59
2022-12-25T13:27:57.929Z,16.41
2022-12-25T13:30:29.402Z,16.15
2022-12-25T13:33:00.233Z,15.92
2022-12-25T13:35:28.479Z,15.67
2022-12-25T13:37:56.754Z,15.43
2022-12-25T13:40:26.294Z,15.24
2022-12-25T13:43:03.064Z,15.04
2022-12-25T13:45:31.727Z,14.85
2022-12-25T13:48:20.126Z,14.59
2022-12-25T13:51:01.395Z,14.39
2022-12-25T13:53:30.931Z,14.15
2022-12-25T13:56:10.079Z,13.89
2022-12-25T13:58:40.799Z,13.69
2022-12-25T14:01:13.476Z,13.52
2022-12-25T14:03:46.183Z,13.33
2022-12-25T14:06:26.981Z,13.16
2022-12-25T14:08:58.361Z,12.95
2022-12-25T14:11:30.728Z,12.77
2022-12-25T14:14:02.648Z,12.55
2022-12-25T14:16:34.393Z,12.34
2022-12-25T14:19:06.212Z,12.17
2022-12-25T14:21:50.326Z,11.99
2022-12-25T14:24:22.114Z,11.78
2022-12-25T14:27:06.279Z,11.58
2022-12-25T14:29:55.445Z,11.36
2022-12-25T14:32:26.781Z,11.18
2022-12-25T14:35:01.866Z,11.00
2022-12-25T14:37:38.417Z,10.83
2022-12-25T14:40:23.904Z,10.64
2022-12-25T14:43:00.737Z,10.48
2022-12-25T14:45:38.939Z,10.31
2022-12-25T14:48:25.266Z,10.14
2022-12-25T14:51:15.145Z,9.98
2022-12-25T14:53:49.136Z,9.83
2022-12-25T14:56:22.330Z,9.69
2022-12-25T14:58:59.129Z,9.57
2022-12-25T15:01:36.738Z,9.45
2022-12-25T15:04:10.951Z,9.35
2022-12-25T15:07:09.793Z,9.25
2022-12-25T15:09:40.400Z,9.13
2022-12-25T15:12:10.042Z,9.04
2022-12-25T15:14:41.434Z,8.94
2022-12-25T15:17:35.239Z,8.80
2022-12-25T15:20:20.581Z,8.64
2022-12-25T15:23:19.282Z,8.53
2022-12-25T15:25:54.949Z,8.44
2022-12-25T15:28:47.362Z,8.37
2022-12-25T15:31:43.028Z,8.30
2022-12-25T15:34:56.783Z,8.19
2022-12-25T15:40:29.713Z,8.01
2022-12-25T15:43:11.433Z,7.96
2022-12-25T15:45:51.791Z,7.89
2022-12-25T15:48:21.979Z,7.83
2022-12-25T15:50:57.051Z,7.76
2022-12-25T15:53:27.125Z,7.70
2022-12-25T15:55:55.915Z,7.65
2022-12-25T15:58:27.056Z,7.59
2022-12-25T16:01:00.834Z,7.56
2022-12-25T16:03:37.020Z,7.53
2022-12-25T16:06:19.322Z,7.48
2022-12-25T16:08:50.809Z,7.47
2022-12-25T16:11:26.914Z,7.47
2022-12-25T16:14:30.583Z,7.47
2022-12-25T16:18:10.357Z,7.50
2022-12-25T16:20:24.569Z,7.54
2022-12-25T16:23:15.671Z,7.56
2022-12-25T16:25:57.251Z,7.59
2022-12-25T16:28:30.106Z,7.61
2022-12-25T16:31:11.562Z,7.62
2022-12-25T16:34:08.818Z,7.63
2022-12-25T16:37:27.939Z,7.59
2022-12-25T16:39:56.370Z,7.52
2022-12-25T16:42:43.432Z,7.44
2022-12-25T16:45:22.896Z,7.32
2022-12-25T16:51:22.365Z,7.09
2022-12-25T16:54:20.220Z,7.02
2022-12-25T16:57:06.551Z,6.96
2022-12-25T17:00:02.895Z,6.90
2022-12-25T17:02:49.821Z,6.83
2022-12-25T17:05:23.533Z,6.79
2022-12-25T17:08:06.058Z,6.73
2022-12-25T17:10:51.157Z,6.59
2022-12-25T17:13:48.538Z,6.39
2022-12-25T17:16:26.220Z,6.21
2022-12-25T17:19:16.127Z,6.05
2022-12-25T17:22:20.763Z,5.92
2022-12-25T17:25:17.700Z,5.77
2022-12-25T17:27:52.843Z,5.66
2022-12-25T17:30:25.080Z,5.60
2022-12-25T17:33:09.032Z,5.54
2022-12-25T17:35:43.264Z,5.46
2022-12-25T17:38:37.468Z,5.42
2022-12-25T17:41:09.410Z,5.39
2022-12-25T17:43:45.900Z,5.36
2022-12-25T17:46:34.657Z,5.31
2022-12-25T17:49:05.640Z,5.27
2022-12-25T17:51:38.829Z,5.22
2022-12-25T17:54:44.243Z,5.12
2022-12-25T17:57:30.868Z,5.04
2022-12-25T18:00:09.206Z,4.98
2022-12-25T18:02:40.781Z,4.94
2022-12-25T18:11:34.157Z,4.84
2022-12-25T18:14:07.765Z,4.79
2022-12-25T18:16:58.937Z,4.75
2022-12-25T18:19:56.042Z,4.73
2022-12-25T18:22:46.910Z,4.73
2022-12-25T18:25:33.939Z,4.72
2022-12-25T18:28:03.303Z,4.65
2022-12-25T18:30:33.389Z,4.53
2022-12-25T18:33:02.867Z,4.40
2022-12-25T18:35:41.472Z,4.30
2022-12-25T18:38:10.043Z,4.20
2022-12-25T18:40:48.539Z,4.09
2022-12-25T18:43:16.819Z,4.01
2022-12-25T18:46:00.631Z,3.89
2022-12-25T18:48:33.647Z,3.75
2022-12-25T18:51:21.167Z,3.63
2022-12-25T18:54:07.632Z,3.52
2022-12-25T18:56:38.567Z,3.43
2022-12-25T18:59:06.703Z,3.33
2022-12-25T19:01:43.914Z,3.22
2022-12-25T19:04:18.723Z,3.14
2022-12-25T19:06:55.553Z,3.04
2022-12-25T19:09:43.803Z,2.95
2022-12-25T19:12:25.153Z,2.86
2022-12-25T19:14:53.422Z,2.81
2022-12-25T19:17:31.756Z,2.79
2022-12-25T19:20:02.257Z,2.76
2022-12-25T19:22:30.581Z,2.74
2022-12-25T19:25:03.020Z,2.75
2022-12-25T19:28:07.567Z,2.76
2022-12-25T19:30:48.586Z,2.76
2022-12-25T19:33:19.119Z,2.75
2022-12-25T19:35:50.139Z,2.74
2022-12-25T19:38:20.426Z,2.71
2022-12-25T19:43:58.355Z,2.61
2022-12-25T19:46:38.631Z,2.54
2022-12-25T19:49:13.487Z,2.45
2022-12-25T19:51:52.294Z,2.39
2022-12-25T19:54:26.827Z,2.35
2022-12-25T19:57:20.957Z,2.33
2022-12-25T19:59:57.452Z,2.36
2022-12-25T20:02:45.253Z,2.38
2022-12-25T20:05:31.824Z,2.39
2022-12-25T20:08:03.771Z,2.41
2022-12-25T20:10:32.123Z,2.39
2022-12-25T20:13:07.033Z,2.35
2022-12-25T20:15:35.417Z,2.31
2022-12-25T20:18:14.132Z,2.24
2022-12-25T20:20:43.108Z,2.17
2022-12-25T20:23:18.150Z,2.13
2022-12-25T20:25:48.579Z,2.09
2022-12-25T20:28:26.053Z,2.09
2022-12-25T20:31:50.727Z,2.06
2022-12-25T20:34:36.786Z,2.07
2022-12-25T20:37:09.241Z,2.10
2022-12-25T20:39:40.491Z,2.14
2022-12-25T20:42:17.798Z,2.17
2022-12-25T20:44:58.389Z,2.20
2022-12-25T20:47:33.597Z,2.22
2022-12-25T20:50:32.226Z,2.23
2022-12-25T20:53:18.352Z,2.18
2022-12-25T20:55:57.451Z,2.14
2022-12-25T20:58:27.705Z,2.11
2022-12-25T21:01:07.369Z,2.10
2022-12-25T21:03:41.213Z,2.05
2022-12-25T21:06:28.979Z,2.00
2022-12-25T21:09:04.947Z,1.94
2022-12-25T21:11:43.685Z,1.91
2022-12-25T21:14:24.852Z,1.88
2022-12-25T21:17:01.708Z,1.86
2022-12-25T21:19:41.771Z,1.85
2022-12-25T21:22:14.346Z,1.82
2022-12-25T21:24:48.218Z,1.80
2022-12-25T21:27:27.795Z,1.76
2022-12-25T21:33:07.402Z,1.63
2022-12-25T21:35:38.445Z,1.55
2022-12-25T21:38:34.548Z,1.50
2022-12-25T21:41:12.854Z,1.43
2022-12-25T21:43:46.226Z,1.37
2022-12-25T21:46:18.869Z,1.34
2022-12-25T21:48:52.998Z,1.27
2022-12-25T21:51:46.594Z,1.23
2022-12-25T21:54:38.216Z,1.19
2022-12-25T21:57:15.311Z,1.13
2022-12-25T21:59:48.028Z,1.09
2022-12-25T22:02:17.355Z,1.06
2022-12-25T22:04:47.016Z,1.02
2022-12-25T22:07:17.386Z,1.00
2022-12-25T22:09:48.811Z,0.96
2022-12-25T22:12:39.200Z,0.89
2022-12-25T22:15:09.955Z,0.87
2022-12-25T22:18:03.898Z,0.87
2022-12-25T22:20:36.872Z,0.84
2022-12-25T22:23:06.872Z,0.79
2022-12-25T22:25:34.975Z,0.77
2022-12-25T22:28:03.120Z,0.74
2022-12-25T22:30:32.126Z,0.74
2022-12-25T22:33:00.176Z,0.71
2022-12-25T22:35:28.379Z,0.73
2022-12-25T22:37:56.575Z,0.74
2022-12-25T22:40:45.100Z,0.77
2022-12-25T22:43:43.612Z,0.79
2022-12-25T22:46:23.044Z,0.84
2022-12-25T22:48:51.238Z,0.88
2022-12-25T22:51:19.256Z,0.94
2022-12-25T22:54:03.278Z,0.99
2022-12-25T22:56:36.306Z,1.00
2022-12-25T22:59:04.731Z,0.98
2022-12-25T23:01:33.059Z,0.97
2022-12-25T23:04:07.300Z,0.94
2022-12-25T23:06:39.063Z,0.91
2022-12-25T23:09:11.971Z,0.92
2022-12-25T23:11:40.185Z,0.89
2022-12-25T23:14:28.167Z,0.89
2022-12-25T23:16:56.577Z,0.89
2022-12-25T23:19:44.676Z,0.88
2022-12-25T23:22:41.380Z,0.87
2022-12-25T23:25:36.186Z,0.85
2022-12-25T23:28:43.644Z,0.78
2022-12-25T23:31:11.864Z,0.69
2022-12-25T23:33:40.037Z,0.65
2022-12-25T23:36:08.252Z,0.58
2022-12-25T23:38:36.292Z,0.48
2022-12-25T23:41:04.478Z,0.41
2022-12-25T23:43:32.601Z,0.37
2022-12-25T23:46:02.235Z,0.28
2022-12-25T23:48:30.564Z,0.24
2022-12-25T23:51:03.886Z,0.22
2022-12-25T23:53:35.123Z,0.20
2022-12-25T23:56:03.996Z,0.15
2022-12-25T23:58:40.501Z,0.15
